Date,TemperatureHighF,TemperatureAvgF,TemperatureLowF,DewpointHighF,DewpointAvgF,DewpointLowF,HumidityHigh,HumidityAvg,HumidityLow,PressureMaxIn,PressureMinIn,WindSpeedMaxMPH,WindSpeedAvgMPH,GustSpeedMaxMPH,PrecipitationSumIn
2013-1-1,72,67,57,67,64,55,97,90,81,30.12,29.96,10,2,16,0.02
2013-1-2,62,53,47,60,49,43,95,87,78,30.17,29.99,11,5,17,0.00
2013-1-3,47,43,38,43,40,32,95,88,77,30.35,30.17,11,4,17,0.35
2013-1-4,56,45,35,37,33,30,83,64,39,30.42,30.32,10,3,16,0.00
2013-1-5,54,48,43,42,36,31,72,62,50,30.38,30.25,7,2,11,0.00
2013-1-6,53,50,47,46,42,38,88,76,64,30.28,30.18,11,4,16,0.01
2013-1-7,63,50,40,44,40,37,92,71,42,30.33,30.21,8,3,13,0.00
2013-1-8,65,57,48,58,51,41,89,82,75,30.28,30.17,6,2,10,0.00
2013-1-9,66,64,61,65,62,57,98,94,85,30.28,30.19,9,3,18,0.00
2013-1-10,67,65,63,66,64,62,99,98,95,30.28,30.07,14,5,23,0.44
2013-1-11,74,68,62,69,66,62,99,95,83,30.17,30.07,12,2,19,0.00
2013-1-12,73,68,65,69,67,65,99,95,85,30.14,30.01,12,4,18,0.00
2013-1-13,73,70,68,70,68,67,98,95,90,30.04,29.97,10,4,18,0.00
2013-1-14,75,70,58,71,68,55,99,94,83,30.11,30.02,9,3,14,0.00
2013-1-15,74,69,56,70,67,55,99,95,89,30.07,29.94,8,3,18,0.17
2013-1-16,70,58,45,70,57,45,98,97,95,30.03,29.93,9,3,15,1.31
2013-1-17,48,43,38,45,38,33,97,82,67,30.33,30.02,15,7,27,0.01
2013-1-18,60,46,37,40,37,34,90,73,38,30.52,30.32,11,3,17,0.00
2013-1-19,63,49,42,48,40,34,92,71,51,30.42,30.26,6,2,10,0.00
2013-1-20,66,53,42,49,46,41,96,78,46,30.28,30.14,9,1,11,0.00
2013-1-21,67,56,47,47,44,40,93,67,41,30.22,30.12,7,2,12,0.00
2013-1-22,60,49,42,40,35,28,76,59,34,30.38,30.20,9,3,14,0.00
2013-1-23,63,52,38,51,44,35,90,77,57,30.43,30.31,8,1,13,0.00
2013-1-24,72,60,50,58,54,49,97,82,56,30.36,30.24,8,2,17,0.00
2013-1-25,70,59,50,61,55,49,98,86,60,30.32,30.18,8,1,15,0.01
2013-1-26,74,63,56,63,59,55,97,87,65,30.27,30.18,7,1,12,0.00
2013-1-27,69,60,53,61,57,52,97,89,73,30.34,30.26,9,1,12,0.01
2013-1-28,68,64,58,65,62,57,98,94,85,30.32,30.18,9,2,14,0.01
2013-1-29,74,70,66,70,68,65,97,94,86,30.18,29.92,12,5,24,0.04
2013-1-30,73,63,45,71,60,32,97,90,59,30.11,29.66,18,6,32,0.27
2013-1-31,59,47,36,39,32,24,86,59,29,30.33,30.11,11,3,19,0.00
2013-2-1,62,50,42,41,35,24,87,58,35,30.41,30.31,11,4,16,0.00
2013-2-2,61,50,38,51,38,23,89,64,47,30.39,30.18,9,2,14,0.00
2013-2-3,57,52,47,52,48,38,92,87,51,30.27,30.19,7,2,10,0.00
2013-2-4,63,55,47,56,46,36,94,73,56,30.14,29.99,5,1,9,0.01
2013-2-5,66,60,54,61,58,54,98,92,81,30.05,29.96,7,1,11,0.36
2013-2-6,68,60,55,60,57,54,98,92,74,30.17,30.03,8,2,11,0.00
2013-2-7,75,64,58,63,59,56,98,86,57,30.05,29.79,15,3,23,2.99
2013-2-8,71,60,52,61,56,50,98,86,63,30.15,29.95,12,2,18,0.00
2013-2-9,62,55,46,55,50,43,95,82,62,30.27,30.15,9,3,15,0.00
2013-2-10,69,64,54,68,62,52,96,94,91,30.16,30.00,15,5,24,0.07
2013-2-11,77,65,58,72,63,56,98,93,78,30.10,30.02,14,4,20,0.60
2013-2-12,70,64,58,69,62,56,98,95,89,30.06,29.78,12,4,26,0.18
2013-2-13,70,56,47,69,53,44,96,87,61,30.07,29.79,10,4,18,0.18
2013-2-14,57,47,42,44,41,40,94,81,55,30.18,30.04,8,3,12,0.00
2013-2-15,66,53,39,46,42,35,96,69,34,30.18,30.04,8,2,11,0.00
2013-2-16,55,49,38,44,29,16,82,50,25,30.30,30.07,14,5,26,0.00
2013-2-17,53,42,31,36,25,15,82,54,27,30.41,30.30,8,2,14,0.00
2013-2-18,63,55,41,55,45,35,85,69,51,30.33,30.07,16,5,24,0.00
2013-2-19,68,61,46,61,48,30,96,66,30,30.21,30.01,12,4,22,0.68
2013-2-20,59,48,41,38,30,23,79,52,28,30.28,30.10,9,2,15,0.00
2013-2-21,65,56,43,64,48,33,96,76,51,30.12,29.93,13,4,19,0.00
2013-2-22,70,67,65,69,66,64,99,98,95,30.00,29.88,8,2,14,2.17
2013-2-23,70,61,57,69,60,56,99,97,95,29.96,29.78,9,2,15,0.53
2013-2-24,70,60,52,58,56,51,97,86,61,30.00,29.84,9,3,14,1.05
2013-2-25,68,62,58,65,60,57,98,95,79,29.90,29.55,15,5,23,3.85
2013-2-26,66,57,53,65,48,42,98,73,58,29.93,29.54,14,4,22,0.17
2013-2-27,63,54,46,49,44,-100,94,71,47,30.04,29.93,7,2,16,0.00
2013-2-28,60,52,46,49,37,30,88,59,34,30.08,29.98,11,4,18,0.00
2013-3-1,56,48,41,40,35,31,75,61,42,30.15,30.01,10,3,19,0.00
2013-3-2,50,41,33,32,28,25,84,61,42,30.19,30.08,12,5,23,0.00
2013-3-3,52,42,34,33,26,22,80,55,31,30.23,30.11,10,3,18,0.00
2013-3-4,63,52,36,57,45,33,94,76,48,30.22,30.02,11,2,20,0.00
2013-3-5,75,63,49,62,56,39,96,78,59,30.14,29.94,13,4,28,0.00
2013-3-6,59,49,42,40,31,24,76,51,28,30.28,30.14,13,5,23,0.00
2013-3-7,64,49,39,45,37,30,85,65,34,30.35,30.22,9,3,14,0.00
2013-3-8,72,54,40,48,41,32,91,64,27,30.32,30.19,8,2,12,0.00
2013-3-9,65,58,48,58,52,45,94,82,69,30.23,30.08,12,4,18,0.00
2013-3-10,68,63,60,62,59,53,93,85,77,30.12,29.99,16,7,27,0.00
2013-3-11,71,59,47,65,56,44,96,90,81,30.02,29.83,11,5,24,1.03
2013-3-12,65,52,41,44,38,33,89,61,33,30.19,29.96,13,4,21,0.00
2013-3-13,67,55,42,39,32,20,82,46,18,30.34,30.19,12,3,20,0.00
2013-3-14,65,51,39,42,29,20,66,46,21,30.44,30.28,11,3,18,0.00
2013-3-15,70,57,44,51,45,32,94,68,36,30.32,30.16,9,2,18,0.00
2013-3-16,76,64,52,60,56,50,96,78,48,30.18,30.02,9,2,19,0.00
2013-3-17,70,63,55,65,61,54,98,92,77,30.04,29.94,7,1,13,0.01
2013-3-18,74,68,64,69,66,62,98,92,83,29.95,29.81,10,3,17,0.00
2013-3-19,76,66,59,68,58,44,98,78,49,30.04,29.88,11,3,18,0.00
2013-3-20,65,59,46,46,36,30,67,43,29,30.09,29.96,12,4,17,0.00
2013-3-21,67,54,44,43,32,21,71,47,18,30.09,29.92,10,3,16,0.00
2013-3-22,65,59,51,55,47,36,76,66,45,29.98,29.89,16,6,27,0.00
2013-3-23,68,64,61,66,61,49,98,89,62,29.91,29.62,11,3,19,0.25
2013-3-24,81,70,50,70,58,33,98,69,29,29.92,29.57,16,5,25,0.04
2013-3-25,61,49,40,35,27,17,68,45,21,30.22,29.89,14,6,24,0.00
2013-3-26,56,46,37,29,26,22,64,47,30,30.37,30.21,11,5,19,0.00
2013-3-27,62,47,36,41,32,24,80,57,27,30.44,30.29,11,3,15,0.00
2013-3-28,68,53,39,42,37,30,89,58,27,30.38,30.26,8,2,13,0.00
2013-3-29,70,57,44,54,46,26,92,69,23,30.36,30.23,6,1,13,0.00
2013-3-30,74,63,52,62,56,51,97,79,55,30.25,30.07,9,2,14,0.00
2013-3-31,77,69,60,66,63,59,97,83,64,30.09,29.92,7,2,15,0.00
2013-4-1,76,67,58,65,58,53,96,77,49,30.05,29.92,11,3,16,0.00
2013-4-2,76,65,53,60,53,46,94,69,37,30.14,30.03,10,2,15,0.00
2013-4-3,65,60,55,62,58,53,97,92,84,30.08,29.81,11,3,23,1.21
2013-4-4,74,64,59,63,60,56,97,87,64,29.96,29.85,8,2,16,0.00
2013-4-5,65,58,52,55,50,48,91,77,56,30.11,29.91,13,4,19,0.00
2013-4-6,70,60,47,56,50,44,91,71,49,30.19,30.09,8,2,15,0.00
2013-4-7,71,63,52,65,60,51,96,90,80,30.17,30.05,12,2,17,0.04
2013-4-8,76,70,65,68,65,63,97,87,69,30.11,30.00,12,5,22,0.00
2013-4-9,77,71,67,68,66,62,96,85,71,30.14,29.99,14,5,22,0.00
2013-4-10,78,71,66,70,67,63,95,87,77,30.08,29.92,12,5,21,0.00
2013-4-11,78,72,65,73,70,64,98,94,87,29.92,29.62,15,4,26,2.10
2013-4-12,75,65,55,64,52,46,97,66,38,29.99,29.76,11,4,16,0.00
2013-4-13,79,65,50,58,52,44,89,64,34,30.06,29.90,9,2,13,0.00
2013-4-14,68,64,58,65,61,57,97,91,76,29.95,29.68,16,3,26,1.11
2013-4-15,76,69,64,70,66,64,98,92,79,30.06,29.86,10,2,15,0.01
2013-4-16,79,72,66,70,68,65,97,86,70,30.14,30.04,10,2,17,0.00
2013-4-17,78,72,68,71,68,65,97,88,68,30.16,30.03,11,3,16,0.00
2013-4-18,77,72,69,72,70,65,96,90,84,30.03,29.89,12,6,20,0.00
2013-4-19,74,60,50,73,58,48,96,92,80,30.17,29.84,12,4,26,0.21
2013-4-20,68,56,45,48,43,37,95,64,35,30.26,30.13,13,4,20,0.00
2013-4-21,73,61,51,55,49,43,83,65,46,30.23,30.12,9,2,14,0.00
2013-4-22,73,66,61,63,58,47,87,74,56,30.16,30.07,8,2,14,0.00
2013-4-23,73,68,64,64,62,60,93,82,68,30.15,30.06,13,4,22,0.00
2013-4-24,76,68,61,69,65,-100,98,92,76,30.15,30.05,12,1,17,0.12
2013-4-25,79,67,57,65,58,44,98,75,46,30.27,30.13,9,4,15,0.01
2013-4-26,79,68,57,59,48,39,86,51,26,30.31,30.23,10,2,15,0.00
2013-4-27,77,69,60,71,66,58,96,88,77,30.23,30.07,12,3,19,0.00
2013-4-28,80,73,69,71,68,63,97,85,67,30.11,29.97,9,2,15,0.00
2013-4-29,80,71,67,70,66,63,94,84,65,30.01,29.91,10,2,16,0.14
2013-4-30,78,73,67,70,68,65,96,85,72,29.99,29.91,11,4,16,0.00
2013-5-1,73,71,69,70,67,66,96,90,82,29.98,29.88,12,4,25,0.10
2013-5-2,77,70,63,68,65,61,96,86,73,30.01,29.90,13,3,22,0.51
2013-5-3,71,66,52,66,63,50,96,90,79,29.94,29.82,14,3,22,0.10
2013-5-4,69,57,46,50,43,37,96,64,33,29.95,29.87,12,5,25,0.03
2013-5-5,74,60,48,60,47,40,93,64,34,30.00,29.83,13,3,23,0.01
2013-5-6,72,61,48,56,49,43,90,67,43,30.02,29.93,10,3,15,0.00
2013-5-7,76,66,55,61,57,53,91,74,54,30.06,29.96,8,2,16,0.00
2013-5-8,78,69,60,68,63,59,98,84,61,30.13,30.02,7,2,13,0.00
2013-5-9,81,71,61,69,64,57,97,81,49,30.17,30.07,8,2,13,0.01
2013-5-10,76,72,68,69,67,65,91,85,72,30.15,29.93,10,2,20,0.00
2013-5-11,74,68,62,68,65,-100,97,92,77,30.08,29.95,7,1,10,0.10
2013-5-12,81,72,64,66,59,49,97,68,35,30.11,29.99,10,4,16,0.01
2013-5-13,79,67,55,52,44,37,70,46,24,30.27,30.11,10,3,15,0.00
2013-5-14,79,68,56,59,54,48,89,62,39,30.30,30.18,8,2,12,0.00
2013-5-15,84,71,60,66,59,49,95,68,36,30.23,30.06,8,2,15,0.00
2013-5-16,82,74,68,71,68,63,92,83,67,30.09,30.01,9,2,18,0.00
2013-5-17,82,73,71,73,69,68,93,89,72,30.09,30.00,9,2,15,0.00
2013-5-18,83,76,72,74,71,70,94,84,69,30.11,30.03,9,2,15,0.00
2013-5-19,83,76,71,73,71,69,96,85,68,30.07,30.01,7,2,13,0.00
2013-5-20,84,77,72,74,72,70,97,85,67,30.07,29.98,10,2,18,0.00
2013-5-21,85,77,71,72,71,68,96,82,60,30.02,29.91,8,2,13,0.00
2013-5-22,84,76,70,74,72,68,98,85,65,30.02,29.90,8,1,15,0.01
2013-5-23,90,79,70,74,69,59,96,74,38,30.05,29.95,8,2,15,0.00
2013-5-24,90,80,73,72,64,54,92,61,35,30.16,30.02,11,4,18,0.00
2013-5-25,86,74,64,62,55,48,83,53,30,30.24,30.15,9,2,15,0.00
2013-5-26,84,75,66,72,67,59,91,78,51,30.23,30.13,9,2,15,0.00
2013-5-27,84,76,69,71,68,64,91,77,55,30.19,30.08,10,2,16,0.00
2013-5-28,84,77,70,74,70,64,89,79,71,30.12,30.06,14,4,23,0.00
2013-5-29,84,78,72,74,72,70,93,82,71,30.09,30.02,15,6,25,0.00
2013-5-30,84,79,76,74,72,70,90,79,67,30.09,30.02,15,7,28,0.00
2013-5-31,84,79,76,74,73,72,89,82,69,30.08,30.00,15,6,25,0.00
2013-6-1,85,79,76,76,74,72,92,86,76,30.04,29.96,11,4,21,0.00
2013-6-2,87,80,73,76,74,72,97,84,66,29.99,29.87,9,2,16,0.00
2013-6-3,87,79,74,77,74,71,95,85,62,29.94,29.85,7,1,11,0.07
2013-6-4,87,80,74,77,75,72,96,84,70,29.96,29.90,11,3,18,0.00
2013-6-5,86,80,74,77,74,68,95,82,69,29.96,29.86,12,3,18,0.00
2013-6-6,89,77,67,74,70,65,95,79,58,29.95,29.70,12,3,18,0.00
2013-6-7,85,77,71,73,70,68,94,80,64,29.91,29.76,7,2,15,0.00
2013-6-8,87,80,73,76,74,71,96,82,64,30.04,29.89,11,2,22,0.00
2013-6-9,76,73,69,73,71,68,97,95,90,30.12,29.95,11,2,24,1.83
2013-6-10,80,76,71,77,74,69,98,92,82,30.11,29.99,10,1,19,0.95
2013-6-11,90,81,75,80,76,74,99,86,67,30.11,30.01,7,1,14,0.00
2013-6-12,93,83,74,80,76,73,98,81,60,30.10,30.00,7,1,11,0.00
2013-6-13,93,82,78,80,76,70,92,81,57,30.03,29.87,8,2,13,0.00
2013-6-14,93,85,79,78,74,68,90,73,47,29.95,29.84,11,3,19,0.00
2013-6-15,88,81,75,80,74,66,89,78,66,30.03,29.93,11,3,17,0.00
2013-6-16,89,83,78,79,77,74,91,83,69,30.07,30.00,11,2,16,0.00
2013-6-17,90,83,78,79,76,74,93,80,67,30.03,29.96,8,2,16,0.01
2013-6-18,91,82,72,78,74,69,96,78,52,30.01,29.91,9,3,16,1.28
2013-6-19,87,76,72,78,74,68,98,91,68,30.04,29.94,11,1,23,1.15
2013-6-20,90,80,73,77,74,70,98,82,57,30.10,30.01,6,1,11,0.01
2013-6-21,88,80,73,76,74,71,95,83,62,30.13,30.05,9,2,16,0.00
2013-6-22,88,80,74,76,74,72,96,80,64,30.13,30.01,9,2,13,0.00
2013-6-23,86,80,75,78,75,72,96,85,71,30.12,30.03,10,2,16,0.13
2013-6-24,89,82,76,79,75,73,97,81,64,30.18,30.08,7,1,12,0.22
2013-6-25,89,82,76,79,76,74,95,82,65,30.14,30.04,8,1,12,0.00
2013-6-26,90,83,75,78,75,72,92,77,64,30.08,29.98,8,1,12,0.00
2013-6-27,94,85,77,81,77,74,92,79,56,30.03,29.90,7,2,12,0.00
2013-6-28,96,86,80,81,78,74,93,78,54,29.93,29.76,9,2,17,0.00
2013-6-29,89,80,72,80,74,68,95,82,69,29.81,29.69,12,1,26,0.15
2013-6-30,89,78,72,76,72,70,96,83,60,29.78,29.70,6,1,11,0.43
2013-7-1,92,82,75,76,72,65,97,74,43,29.90,29.76,7,1,12,0.01
2013-7-2,89,80,72,75,72,69,92,75,58,30.01,29.89,8,1,15,0.00
2013-7-3,85,77,74,76,74,72,96,89,73,30.04,29.96,11,2,16,0.97
2013-7-4,81,77,73,76,73,70,98,90,77,30.03,29.92,12,3,21,2.92
2013-7-5,78,74,70,75,72,69,97,94,89,30.11,30.01,9,1,16,2.34
2013-7-6,77,75,72,75,73,70,98,94,89,30.08,30.00,9,2,17,0.82
2013-7-7,83,77,74,79,75,73,98,94,82,30.14,30.03,7,1,14,1.85
2013-7-8,86,78,74,79,76,73,98,92,76,30.18,30.10,5,1,9,0.03
2013-7-9,90,80,74,79,75,73,99,85,62,30.20,30.09,7,1,10,0.01
2013-7-10,90,78,72,79,74,71,97,90,63,30.12,29.98,8,1,16,3.00
2013-7-11,80,76,73,76,74,72,98,95,86,30.03,29.89,6,1,10,0.65
2013-7-12,90,80,72,77,74,68,97,84,64,29.94,29.84,13,1,23,0.07
2013-7-13,87,77,70,78,73,68,98,88,73,29.99,29.87,10,1,16,0.05
2013-7-14,87,78,70,76,73,68,93,85,67,30.04,29.92,8,2,13,0.02
2013-7-15,88,80,74,77,75,72,97,85,66,30.14,30.03,14,2,21,0.25
2013-7-16,88,80,74,77,74,72,94,83,64,30.19,30.09,14,4,21,0.00
2013-7-17,92,82,75,77,75,72,94,79,59,30.23,30.10,7,2,13,0.00
2013-7-18,89,81,74,78,73,70,90,78,61,30.15,30.01,8,2,11,0.00
2013-7-19,87,79,75,77,74,70,95,86,70,30.09,29.97,11,2,17,0.00
2013-7-20,85,79,74,79,76,73,98,90,77,30.03,29.94,10,2,15,1.19
2013-7-21,87,80,76,78,75,72,92,85,68,30.08,30.00,8,1,18,0.04
2013-7-22,86,77,71,79,74,69,98,92,78,30.10,30.01,14,1,22,0.03
2013-7-23,91,80,73,79,76,70,99,86,64,30.05,29.94,13,2,22,0.10
2013-7-24,89,82,72,79,76,68,95,84,62,29.97,29.88,12,3,24,0.09
2013-7-25,92,82,72,77,74,71,97,79,58,30.00,29.86,7,2,12,0.06
2013-7-26,91,82,75,78,74,72,91,78,58,30.05,29.97,7,1,13,0.05
2013-7-27,85,79,73,79,74,71,96,86,68,29.98,29.92,7,1,11,0.04
2013-7-28,88,80,74,79,75,72,98,86,70,30.01,29.89,8,2,12,0.03
2013-7-29,90,83,76,79,77,75,97,84,66,30.12,29.98,8,1,14,0.03
2013-7-30,90,84,78,79,77,73,96,81,62,30.16,30.07,7,1,14,0.02
2013-7-31,91,83,79,81,77,73,93,83,60,30.11,29.99,6,1,11,0.03
2013-8-1,88,79,73,79,76,71,97,90,76,30.03,29.93,13,1,23,0.04
2013-8-2,91,81,73,80,76,72,98,85,64,30.03,29.92,6,1,11,0.01
2013-8-3,91,84,78,81,78,76,96,84,65,30.07,29.99,7,1,14,0.02
2013-8-4,96,84,77,80,77,72,96,81,51,30.08,29.96,10,1,16,0.02
2013-8-5,94,83,75,80,76,72,92,80,56,30.04,29.94,7,2,13,0.01
2013-8-6,97,82,77,80,76,72,93,82,55,30.03,29.90,9,1,14,0.01
2013-8-7,93,83,75,79,76,72,94,79,58,30.00,29.91,7,2,11,0.00
2013-8-8,92,84,79,80,78,74,96,83,59,29.99,29.92,10,2,16,0.00
2013-8-9,90,84,78,81,78,76,96,83,69,30.06,29.95,11,2,17,0.00
2013-8-10,90,83,78,79,76,74,94,80,65,30.11,30.02,9,2,16,0.00
2013-8-11,90,83,77,80,77,75,97,83,64,30.15,30.08,10,2,14,0.00
2013-8-12,90,82,78,81,77,74,95,87,69,30.13,30.04,7,1,11,0.00
2013-8-13,90,80,74,80,76,72,96,88,71,30.07,29.95,16,1,26,0.00
2013-8-14,89,80,75,77,74,72,95,82,65,29.97,29.89,9,2,13,0.00
2013-8-15,86,79,74,77,75,72,97,87,72,29.98,29.91,6,1,12,0.00
2013-8-16,80,77,74,76,74,73,98,92,84,30.01,29.93,7,2,13,0.00
2013-8-17,75,72,71,74,71,69,98,96,90,30.03,29.93,11,2,17,1.12
2013-8-18,79,74,70,76,73,69,99,96,88,30.07,29.97,10,2,26,3.53
2013-8-19,88,81,75,79,76,74,98,87,71,30.07,29.98,9,2,14,0.00
2013-8-20,86,78,74,80,75,72,98,91,78,30.11,29.99,11,1,21,0.12
2013-8-21,89,79,74,79,74,70,97,85,69,30.15,30.05,8,2,12,0.00
2013-8-22,88,78,73,79,74,71,95,87,70,30.12,29.98,12,2,16,0.00
2013-8-23,80,76,73,76,74,72,97,93,85,30.05,29.95,6,1,9,0.22
2013-8-24,80,76,72,76,74,70,98,94,86,30.15,30.00,8,1,15,0.58
2013-8-25,83,76,74,76,74,72,97,92,79,30.19,30.11,9,2,16,0.07
2013-8-26,90,83,75,71,68,66,73,62,49,30.20,30.10,7,2,11,0.01
2013-8-27,90,78,69,72,67,62,88,70,43,30.13,30.02,6,1,11,0.00
2013-8-28,90,76,71,74,68,-100,89,79,52,30.08,30.00,7,1,11,0.00
2013-8-29,90,81,73,76,71,69,89,72,53,30.07,29.97,6,1,11,0.00
2013-8-30,93,82,75,77,73,70,86,73,55,30.03,29.90,6,2,10,0.00
2013-8-31,91,81,77,78,74,72,89,80,65,29.97,29.86,8,2,13,0.04
2013-9-1,89,80,75,80,75,73,96,87,68,29.94,29.86,11,1,16,0.21
2013-9-2,92,80,72,80,76,69,97,88,61,30.00,29.89,11,1,17,0.70
2013-9-3,91,78,74,80,75,71,98,91,66,29.99,29.88,8,1,14,0.11
2013-9-4,90,80,73,79,75,72,98,84,63,30.08,29.97,6,1,14,0.00
2013-9-5,92,82,74,77,74,71,97,80,53,30.13,30.03,8,1,12,0.00
2013-9-6,93,82,75,74,72,68,94,73,50,30.10,29.99,7,1,9,0.00
2013-9-7,93,81,73,77,72,68,89,76,49,30.06,29.98,10,1,15,0.00
2013-9-8,91,82,74,76,72,69,96,75,51,30.01,29.93,7,1,12,0.00
2013-9-9,92,82,74,75,72,68,91,73,50,30.05,29.97,8,1,14,0.00
2013-9-10,90,82,76,77,73,71,86,75,56,30.13,30.03,11,2,17,0.00
2013-9-11,90,82,74,74,72,69,89,75,52,30.13,30.03,8,2,13,0.00
2013-9-12,90,82,75,75,73,71,90,75,55,30.05,29.92,7,1,11,0.00
2013-9-13,92,82,74,76,72,67,89,74,45,29.94,29.81,6,1,11,0.00
2013-9-14,87,80,74,73,69,65,83,69,55,29.99,29.85,9,2,14,0.00
2013-9-15,90,81,72,76,71,64,85,71,58,30.07,29.98,8,2,12,0.00
2013-9-16,90,80,74,79,75,71,96,84,67,30.09,30.00,10,2,15,0.67
2013-9-17,90,80,73,77,74,70,96,82,62,30.08,29.98,9,2,21,0.13
2013-9-18,86,78,74,76,73,70,92,84,69,30.10,30.01,8,2,16,0.10
2013-9-19,86,79,73,75,72,68,88,78,60,30.09,30.00,11,3,18,0.00
2013-9-20,89,81,75,78,74,71,92,81,63,30.03,29.87,11,2,14,0.00
2013-9-21,83,77,74,77,74,-100,97,91,80,29.87,29.73,9,1,16,0.60
2013-9-22,77,73,69,75,71,68,97,93,87,29.81,29.74,8,3,13,0.22
2013-9-23,87,78,72,78,74,70,95,87,73,29.89,29.79,7,2,12,0.04
2013-9-24,80,76,71,78,74,69,97,94,87,29.90,29.78,12,2,20,2.08
2013-9-25,89,78,72,77,73,69,97,85,60,29.82,29.74,6,1,10,0.02
2013-9-26,89,74,69,75,70,67,95,87,54,29.96,29.81,7,1,10,0.00
2013-9-27,86,76,68,68,65,63,90,71,50,30.05,29.95,8,2,12,0.00
2013-9-28,86,75,65,67,64,60,86,70,49,30.10,30.01,7,2,11,0.00
2013-9-29,84,74,64,68,66,60,86,75,58,30.07,29.96,6,1,11,0.00
2013-9-30,85,75,69,72,68,64,89,79,62,30.01,29.93,6,1,10,0.01
2013-10-1,85,77,68,75,71,66,94,83,69,30.07,29.98,9,2,13,0.00
2013-10-2,80,75,72,74,72,70,94,89,80,30.08,30.01,9,2,17,0.04
2013-10-3,84,78,71,77,73,67,92,85,78,30.08,29.99,10,3,18,0.00
2013-10-4,87,80,74,77,74,72,95,85,64,30.08,30.00,10,2,16,0.01
2013-10-5,86,80,75,77,75,73,97,85,70,30.06,29.95,10,3,16,0.00
2013-10-6,82,76,72,74,72,69,96,90,75,29.95,29.80,12,2,19,1.21
2013-10-7,79,69,61,71,58,54,96,70,45,29.98,29.83,11,5,21,0.01
2013-10-8,82,69,56,67,58,52,88,71,43,30.00,29.94,8,2,14,0.00
2013-10-9,79,71,66,69,66,63,91,84,71,30.11,30.00,7,2,11,0.00
2013-10-10,82,71,64,71,66,62,94,85,66,30.12,30.01,7,1,10,0.00
2013-10-11,84,74,66,70,66,62,96,79,52,30.08,29.97,6,1,10,0.01
2013-10-12,85,75,66,72,68,63,95,81,52,30.09,30.00,5,1,8,0.00
2013-10-13,85,76,68,69,65,60,92,71,46,30.16,30.06,10,2,14,0.00
2013-10-14,85,74,66,70,65,61,87,74,50,30.12,30.02,8,2,13,0.00
2013-10-15,80,72,65,68,65,62,92,80,63,30.08,29.97,7,2,11,0.00
2013-10-16,82,73,64,70,66,62,94,81,62,30.04,29.93,7,1,10,0.00
2013-10-17,82,74,68,76,70,66,94,87,75,29.98,29.88,7,1,12,0.19
2013-10-18,79,70,64,67,64,61,91,82,67,30.02,29.92,8,2,13,0.01
2013-10-19,72,67,64,66,62,58,90,83,72,30.01,29.91,10,3,16,0.02
2013-10-20,76,65,56,60,58,54,93,77,54,30.05,29.97,8,2,14,0.00
2013-10-21,72,66,62,64,60,56,90,79,73,30.07,29.97,7,2,9,0.02
2013-10-22,74,66,61,66,62,57,94,86,74,29.99,29.88,6,1,10,0.13
2013-10-23,74,64,56,58,50,42,86,62,34,30.12,29.94,10,4,18,0.01
2013-10-24,73,62,50,56,49,42,83,64,35,30.24,30.11,6,1,10,0.00
2013-10-25,68,59,53,54,44,36,85,61,34,30.37,30.20,13,5,18,0.00
2013-10-26,71,57,46,48,41,34,80,57,29,30.32,30.17,5,1,9,0.00
2013-10-27,74,61,48,59,52,44,92,73,46,30.19,30.10,6,1,10,0.00
2013-10-28,77,66,57,62,59,54,91,77,60,30.23,30.11,9,1,13,0.00
2013-10-29,77,67,58,68,61,56,94,83,61,30.29,30.19,10,2,14,0.01
2013-10-30,78,70,62,71,66,59,93,88,78,30.24,30.10,10,2,18,0.00
2013-10-31,81,76,72,72,70,67,89,83,75,30.12,29.89,8,3,17,0.00
2013-11-1,76,70,62,74,68,59,96,93,86,29.90,29.80,8,2,15,0.82
2013-11-2,77,64,54,59,51,45,91,66,38,30.11,29.88,8,2,16,0.00
2013-11-3,69,58,48,48,45,42,82,63,39,30.23,30.10,9,3,17,0.00
2013-11-4,75,63,55,57,52,46,80,67,51,30.30,30.19,8,3,17,0.00
2013-11-5,77,65,56,62,55,48,78,70,59,30.29,30.16,7,2,15,0.00
2013-11-6,73,67,60,66,61,54,91,83,73,30.19,30.08,8,2,14,0.00
2013-11-7,68,60,49,67,56,42,95,84,73,30.23,30.03,13,4,23,0.08
2013-11-8,66,55,46,43,39,34,77,57,37,30.30,30.18,13,5,24,0.00
2013-11-9,74,61,50,59,52,42,89,73,57,30.26,30.17,6,2,10,0.00
2013-11-10,76,64,55,60,56,52,89,74,54,30.26,30.16,8,2,14,0.00
2013-11-11,79,63,51,54,49,45,86,65,32,30.24,30.14,5,1,8,0.00
2013-11-12,73,59,42,51,46,24,82,63,45,30.41,30.15,18,5,30,0.00
2013-11-13,56,45,35,30,25,21,60,47,30,30.49,30.39,18,6,26,0.00
2013-11-14,64,52,38,50,40,27,80,64,50,30.43,30.19,6,2,12,0.00
2013-11-15,67,61,56,64,58,48,94,88,73,30.18,30.02,10,2,17,0.12
2013-11-16,70,65,61,66,63,59,96,91,85,30.13,30.02,10,2,13,0.00
2013-11-17,80,72,67,74,70,65,96,93,81,30.02,29.94,11,3,19,0.01
2013-11-18,74,69,59,73,63,42,97,83,51,30.05,29.95,12,2,19,2.10
2013-11-19,66,56,49,43,41,38,73,57,42,30.12,30.01,11,4,17,0.00
2013-11-20,71,58,49,58,51,41,85,76,60,30.18,30.04,6,2,12,0.00
2013-11-21,67,60,56,61,55,51,88,83,76,30.25,30.17,6,2,11,0.00
2013-11-22,71,66,63,66,63,60,94,89,83,30.25,30.13,8,1,12,0.00
2013-11-23,69,62,52,64,58,41,95,87,67,30.24,30.14,14,4,22,0.00
2013-11-24,55,49,42,41,32,27,67,53,37,30.35,30.24,18,7,29,0.00
2013-11-25,63,52,45,61,44,33,95,73,59,30.32,29.90,17,4,29,0.29
2013-11-26,67,56,45,66,54,43,96,93,91,29.91,29.67,22,6,35,2.48
2013-11-27,48,43,34,43,32,23,93,68,46,30.37,29.88,13,7,24,0.03
2013-11-28,52,39,29,33,26,22,83,61,34,30.48,30.36,9,3,15,0.00
2013-11-29,61,45,32,37,31,27,85,62,31,30.54,30.41,9,2,13,0.00
2013-11-30,68,51,37,48,40,32,87,69,44,30.46,30.27,6,1,8,0.00
2013-12-1,68,55,46,54,48,42,90,79,59,30.28,30.03,6,1,9,0.00
2013-12-2,70,58,50,56,52,47,92,80,57,30.03,29.82,6,1,10,0.00
2013-12-3,78,68,57,67,64,55,96,87,66,29.88,29.80,7,1,21,0.00
2013-12-4,73,69,64,71,67,-100,96,95,93,29.99,29.88,8,1,12,0.41
2013-12-5,76,73,71,73,71,70,97,95,87,30.08,29.98,7,2,15,0.02
2013-12-6,78,73,62,73,71,60,96,93,85,30.12,30.00,8,2,18,0.01
2013-12-7,62,49,46,60,46,43,95,92,88,30.27,30.12,12,6,21,0.00
2013-12-8,76,62,47,70,60,46,97,94,83,30.22,30.07,8,2,14,0.00
2013-12-9,71,69,65,70,67,62,97,95,89,30.12,30.05,6,1,12,0.01
2013-12-10,67,50,41,66,46,-100,96,87,73,30.35,30.03,14,5,24,0.00
2013-12-11,64,50,39,46,40,32,83,67,47,30.39,30.29,7,2,13,0.00
2013-12-12,58,49,40,41,32,25,70,54,30,30.48,30.37,12,5,21,0.00
2013-12-13,59,49,38,50,39,25,84,68,53,30.37,30.05,8,2,12,0.00
2013-12-14,75,65,54,69,60,47,94,85,72,30.06,29.84,8,2,21,0.00
2013-12-15,59,44,36,55,39,32,91,82,71,30.29,29.93,12,5,23,0.00
2013-12-16,62,45,33,41,36,30,90,73,39,30.34,30.25,7,2,12,0.00
2013-12-17,66,50,38,42,38,34,90,66,33,30.34,30.22,6,1,10,0.00
2013-12-18,47,46,43,40,39,38,81,78,73,30.32,30.28,2,0,5,0.00
2013-12-19,66,56,45,59,50,39,90,81,69,30.29,30.12,10,2,16,0.00
2013-12-20,70,63,58,66,60,56,96,90,81,30.16,30.03,9,2,13,0.00
2013-12-21,74,71,65,72,69,64,97,95,91,30.03,29.90,12,5,22,0.00
2013-12-22,75,68,54,72,66,52,96,93,88,30.10,29.90,10,5,21,0.00
2013-12-23,56,50,40,54,46,34,95,89,80,30.37,30.07,13,5,21,0.00
2013-12-24,52,44,33,34,31,28,88,63,43,30.48,30.35,13,5,20,0.00
2013-12-25,53,42,32,36,30,26,77,63,40,30.40,30.28,8,2,13,0.00
2013-12-26,56,48,39,42,38,35,85,71,53,30.34,30.25,12,4,20,0.00
2013-12-27,60,52,43,42,39,35,78,63,50,30.38,30.27,11,4,16,0.00
2013-12-28,54,50,48,52,47,41,96,91,63,30.28,29.90,11,3,15,0.00
2013-12-29,57,50,46,51,47,43,96,91,79,30.13,29.91,10,3,16,0.06
2013-12-30,59,50,41,52,46,40,96,86,63,30.28,30.12,4,0,7,0.00
2013-12-31,52,46,44,48,42,40,90,86,82,30.42,30.28,9,4,15,0.00
2014-1-1,62,52,45,57,49,41,94,90,82,30.34,30.03,7,1,11,0.14
2014-1-2,59,51,36,57,46,28,96,84,62,30.28,29.92,16,5,25,0.31